Lake Winnebago, Missouri
Current Conditions -  °F | °C
As of 11:53 AM on Thursday 27 Nov 2014 (Local Time) from KLXT Reporting Station
Overcast Overcast  
Wind Chill: 31°   Ceiling: 7500
Heat Index: 31°   Visibility: 10mi
Dew Point: 21°   Wind: 0mph
Humidity: 67%   Direction: NA
Pressure: 30.5"   Gusts: NA
Location:  38.8215°N, 94.3094°W
Report Text: KLXT 271753Z AUTO 00000KT 10SM OVC075 M01/M06 A3050 RMK AO2 SLP341 T10061061 11006 21033 58007 TSNO
Loading
Personal Weather Stations






























Interactive Weather Map New forecast layout! Learn more

10-Day Weather Forecast

Advertisements
Track Severe Weather on mobile